Aérodrome :
LOGIN :

S'inscrire | Disclaimer

   EN    FR    IT 

 










Légende :    VFR   VFR Marginal   IFR   IFR Intensif   IFR Très Intensif
Visi : 
Plafond : 
>= 8 km
>= 3000ft
5 à 8 km
1000 à 3000 ft
1500m à 5 km
500 à 1000 ft
800 à 1500m
200 à 500 ft
< 800m
< 200 ft
Symboles :   Orages  Brouillard  Fortes neiges  Fortes précipitations  Vent > 20 kt
SIGMETs :   Divers  Orages  Givrage  Turbulence  Onde Orograph.  Cendres Volcan.







- Altitude de l'aérodrome : 102 ft
- Code IATA : CNG
- Voir les cartes d'approche


LFBG - Cognac

DERNIER METAR :
  • 250600Z AUTO 36004KT 330V030 CAVOK 10/04 Q1010 NOSIG

METARs EXPIRÉS :
  • 250530Z AUTO VRB01KT CAVOK 09/04 Q1010 NOSIG
  • 250500Z AUTO 02008KT CAVOK 09/04 Q1009 NOSIG
  • 250430Z AUTO 02005KT CAVOK 10/04 Q1009
  • 250400Z AUTO 36006KT CAVOK 10/03 Q1010
  • 250330Z AUTO 36005KT CAVOK 11/03 Q1010

TAF TAF LFBG
Valide du 25 à 03h jusqu'au 26 à 03h UTC


250200Z 2503/2603 01008KT CAVOK
BECMG 2514/2516 02012KT 6000 RA BKN012 BKN030
BECMG 2520/2522 CAVOK
Pas de NOTAMs connus pour ce terrain.
1 SIGMET publié pour la FIR Bordeaux (LFBB) :
 
Orages noyés dans la masse
LFBB SIGMET 1 VALID 250600/250800 LFPW
LFBB BORDEAUX FIR/UIR EMBD TS OBS WI N4400 E00130 - N4430 E00130 - N4430 E00230 - N4400 E00230 TOP FL300 MOV NE 15KT NC=



MET'MAP, la Météo Aéronautique d'un coup d'oeil ! - Copyright ORBIFLY Décembre 2007 - Disclaimer

ORBIFLY MET'MAP TEAM :

Programmation & Développement : Alexandra Zaïnal
Conception & Développement : Baudouin d'Aumeries
Co-Programmation & Développement : Marc-Olivier Méhu
Soutien technique & logistique : Manuel Goepfert

Contact : metmap@orbifly.com




SOURCES & CREDITS :

   NOAA